Duanesburg, NY (12056)

4:48 PM EST on March 06, 2015 (GMT -0500)
Duanesburg Rt. 20 | Change Station
CLOSE
Current Station
Personal Weather Station
Location: Delanson, NY
Elevation: 1122 ft
Nearby Weather Stations

Elev 1122 ft 42.77 °N, 74.17 °W | Updated 1 second ago

Clear
Clear
20.1 °F
Feels Like 20 °F
N
0.0
Wind Variable Wind from North
Gusts 0.0 mph

Today
High -- | Low -- °F
--% Chance of Precip.
Yesterday
High -- | Low -- °F
Precip. -- in
6:24 AM 5:51 PM
Full, 99% visible
Pressure 30.38 in
Visibility 10.0 miles
Clouds Clear
Windchill 20 °F
Dew Point 1 °F
Humidity 43%
Rainfall in
Snow Depth Not available.
UV 1 out of 12
Pollen .50 out of 12
Air Quality Not available.
Flu Activity Not available.
METAR KSCH 062054Z 00000KT 10SM CLR M04/M18 A3038

More Conditions Fewer Conditions

Pressure 30.38 in
Visibility 10.0 miles
Clouds Clear
Windchill 20 °F
Dew Point 1 °F
Humidity 43%
Rainfall in
Snow Depth Not available.
UV 1 out of 12
Pollen .50 out of 12
Air Quality Not available.
Flu Activity Not available.
METAR KSCH 062054Z 00000KT 10SM CLR M04/M18 A3038

More Conditions Fewer Conditions

10-Day Weather Forecast

Almanac

Astronomy

Mar. 06, 2015 Rise Set
Actual Time
Civil Twilight
Nautical Twilight
Astronomical Twilight
Moon
Length of Visible Light
Length of Day
Tomorrow will be .
, % of the Moon is Illuminated

Today's Extremes

State Highs State Lows

Community

WunderPhotos

Upload Photos

1,803,406 photos uploaded!

WunderBlogs® & News

Nearby

Air Quality

  Air Quality AQ Index Pollutant
Not available.

Snow Depth

Station Depth Elevation

Earthquake Activity

City Distance Mag. Time & Date
Minimum magnitude displayed is 2.5.

Coastal Water Temperatures

Place Temperature

Nearby Weather Stations